createdAt,value
2023-01-02T00:00:51.486Z,100.00
2023-01-02T00:03:18.461Z,100.00
2023-01-02T00:05:45.099Z,100.00
2023-01-02T00:08:11.652Z,100.00
2023-01-02T00:10:38.096Z,100.00
2023-01-02T00:13:04.566Z,100.00
2023-01-02T00:15:31.137Z,100.00
2023-01-02T00:17:57.664Z,100.00
2023-01-02T00:20:24.184Z,100.00
2023-01-02T00:22:50.667Z,100.00
2023-01-02T00:25:17.287Z,100.00
2023-01-02T00:27:43.809Z,100.00
2023-01-02T00:30:10.729Z,100.00
2023-01-02T00:32:37.189Z,100.00
2023-01-02T00:35:03.708Z,100.00
2023-01-02T00:37:30.221Z,100.00
2023-01-02T00:39:56.879Z,100.00
2023-01-02T00:42:23.389Z,100.00
2023-01-02T00:44:49.855Z,100.00
2023-01-02T00:47:16.333Z,100.00
2023-01-02T00:49:42.792Z,100.00
2023-01-02T00:52:09.289Z,100.00
2023-01-02T00:54:35.718Z,100.00
2023-01-02T00:57:02.344Z,100.00
2023-01-02T00:59:28.834Z,100.00
2023-01-02T01:01:55.439Z,100.00
2023-01-02T01:04:22.025Z,100.00
2023-01-02T01:06:48.665Z,100.00
2023-01-02T01:09:15.306Z,100.00
2023-01-02T01:11:41.851Z,100.00
2023-01-02T01:14:08.409Z,100.00
2023-01-02T01:16:35.086Z,100.00
2023-01-02T01:19:01.664Z,100.00
2023-01-02T01:21:28.192Z,100.00
2023-01-02T01:23:55.234Z,100.00
2023-01-02T01:26:22.523Z,100.00
2023-01-02T01:28:51.375Z,100.00
2023-01-02T01:31:17.845Z,100.00
2023-01-02T01:33:44.522Z,100.00
2023-01-02T01:36:12.807Z,100.00
2023-01-02T01:38:39.627Z,100.00
2023-01-02T01:41:06.527Z,100.00
2023-01-02T01:43:37.071Z,100.00
2023-01-02T01:46:04.761Z,100.00
2023-01-02T01:48:32.137Z,100.00
2023-01-02T01:50:58.593Z,100.00
2023-01-02T01:53:25.495Z,100.00
2023-01-02T01:55:53.878Z,100.00
2023-01-02T01:58:26.699Z,100.00
2023-01-02T02:00:53.343Z,100.00
2023-01-02T02:03:22.276Z,100.00
2023-01-02T02:05:49.010Z,100.00
2023-01-02T02:08:24.457Z,100.00
2023-01-02T02:10:51.925Z,100.00
2023-01-02T02:13:18.512Z,100.00
2023-01-02T02:15:48.050Z,100.00
2023-01-02T02:18:21.302Z,100.00
2023-01-02T02:20:57.943Z,100.00
2023-01-02T02:23:27.384Z,100.00
2023-01-02T02:25:59.717Z,100.00
2023-01-02T02:28:29.340Z,100.00
2023-01-02T02:30:57.497Z,100.00
2023-01-02T02:33:45.376Z,100.00
2023-01-02T02:36:21.154Z,100.00
2023-01-02T02:38:48.215Z,100.00
2023-01-02T02:41:14.683Z,100.00
2023-01-02T02:43:55.079Z,100.00
2023-01-02T02:46:21.564Z,100.00
2023-01-02T02:48:56.900Z,100.00
2023-01-02T02:51:33.277Z,100.00
2023-01-02T02:54:03.297Z,100.00
2023-01-02T02:56:30.333Z,100.00
2023-01-02T02:58:57.037Z,100.00
2023-01-02T03:01:30.199Z,100.00
2023-01-02T03:03:57.484Z,100.00
2023-01-02T03:06:42.361Z,100.00
2023-01-02T03:09:27.359Z,100.00
2023-01-02T03:11:55.271Z,100.00
2023-01-02T03:14:29.372Z,100.00
2023-01-02T03:17:04.218Z,100.00
2023-01-02T03:19:35.766Z,100.00
2023-01-02T03:22:02.194Z,100.00
2023-01-02T03:24:29.602Z,100.00
2023-01-02T03:26:59.479Z,100.00
2023-01-02T03:29:33.432Z,100.00
2023-01-02T03:32:01.481Z,100.00
2023-01-02T03:34:31.395Z,100.00
2023-01-02T03:37:07.463Z,100.00
2023-01-02T03:39:37.179Z,100.00
2023-01-02T03:42:07.918Z,100.00
2023-01-02T03:44:51.846Z,100.00
2023-01-02T03:47:32.103Z,100.00
2023-01-02T03:50:01.166Z,100.00
2023-01-02T03:52:27.695Z,100.00
2023-01-02T03:54:55.192Z,100.00
2023-01-02T03:57:21.660Z,100.00
2023-01-02T04:00:06.812Z,100.00
2023-01-02T04:02:37.524Z,100.00
2023-01-02T04:05:07.015Z,100.00
2023-01-02T04:07:48.927Z,100.00
2023-01-02T04:10:16.305Z,100.00
2023-01-02T04:12:45.988Z,100.00
2023-01-02T04:15:13.910Z,100.00
2023-01-02T04:17:50.651Z,100.00
2023-01-02T04:20:21.221Z,100.00
2023-01-02T04:22:54.422Z,100.00
2023-01-02T04:25:24.661Z,100.00
2023-01-02T04:27:55.289Z,100.00
2023-01-02T04:30:21.776Z,100.00
2023-01-02T04:32:48.966Z,100.00
2023-01-02T04:35:17.559Z,100.00
2023-01-02T04:37:44.838Z,100.00
2023-01-02T04:40:14.346Z,100.00
2023-01-02T04:42:40.962Z,100.00
2023-01-02T04:45:07.763Z,100.00
2023-01-02T04:47:34.338Z,100.00
2023-01-02T04:50:00.851Z,100.00
2023-01-02T04:52:32.058Z,100.00
2023-01-02T04:55:01.759Z,100.00
2023-01-02T04:57:28.340Z,100.00
2023-01-02T04:59:54.886Z,100.00
2023-01-02T05:02:21.522Z,100.00
2023-01-02T05:04:48.113Z,100.00
2023-01-02T05:07:14.612Z,100.00
2023-01-02T05:09:41.146Z,100.00
2023-01-02T05:12:07.735Z,100.00
2023-01-02T05:14:34.198Z,100.00
2023-01-02T05:17:00.633Z,100.00
2023-01-02T05:19:27.195Z,100.00
2023-01-02T05:22:12.467Z,100.00
2023-01-02T05:24:39.002Z,100.00
2023-01-02T05:27:05.490Z,100.00
2023-01-02T05:29:32.016Z,100.00
2023-01-02T05:31:58.515Z,100.00
2023-01-02T05:34:25.040Z,100.00
2023-01-02T05:36:51.534Z,100.00
2023-01-02T05:39:18.040Z,100.00
2023-01-02T05:41:44.523Z,100.00
2023-01-02T05:44:13.028Z,100.00
2023-01-02T05:46:39.923Z,100.00
2023-01-02T05:49:10.780Z,100.00
2023-01-02T05:51:37.546Z,100.00
2023-01-02T05:54:04.185Z,100.00
2023-01-02T05:56:30.768Z,100.00
2023-01-02T05:58:57.660Z,100.00
2023-01-02T06:01:25.936Z,100.00
2023-01-02T06:03:53.810Z,100.00
2023-01-02T06:06:21.662Z,100.00
2023-01-02T06:08:48.177Z,100.00
2023-01-02T06:11:14.877Z,100.00
2023-01-02T06:13:41.378Z,100.00
2023-01-02T06:16:09.030Z,100.00
2023-01-02T06:18:36.196Z,100.00
2023-01-02T06:21:03.940Z,100.00
2023-01-02T06:23:30.478Z,100.00
2023-01-02T06:26:01.966Z,100.00
2023-01-02T06:28:28.406Z,100.00
2023-01-02T06:30:58.953Z,100.00
2023-01-02T06:33:25.507Z,100.00
2023-01-02T06:36:01.555Z,100.00
2023-01-02T06:38:28.331Z,100.00
2023-01-02T06:40:59.135Z,100.00
2023-01-02T06:43:26.077Z,100.00
2023-01-02T06:45:52.872Z,100.00
2023-01-02T06:48:19.520Z,100.00
2023-01-02T06:50:46.051Z,100.00
2023-01-02T06:53:13.159Z,100.00
2023-01-02T06:55:39.778Z,100.00
2023-01-02T06:58:11.181Z,100.00
2023-01-02T07:00:39.956Z,100.00
2023-01-02T07:03:06.535Z,100.00
2023-01-02T07:05:33.112Z,100.00
2023-01-02T07:07:59.626Z,100.00
2023-01-02T07:10:26.140Z,100.00
2023-01-02T07:12:52.573Z,100.00
2023-01-02T07:15:19.249Z,100.00
2023-01-02T07:17:45.762Z,100.00
2023-01-02T07:20:12.238Z,100.00
2023-01-02T07:22:43.439Z,100.00
2023-01-02T07:25:10.018Z,100.00
2023-01-02T07:27:36.629Z,100.00
2023-01-02T07:30:03.310Z,100.00
2023-01-02T07:32:29.762Z,100.00
2023-01-02T07:34:56.313Z,100.00
2023-01-02T07:37:22.759Z,100.00
2023-01-02T07:39:50.784Z,100.00
2023-01-02T07:42:17.341Z,100.00
2023-01-02T07:44:43.907Z,100.00
2023-01-02T07:47:10.435Z,100.00
2023-01-02T07:49:36.926Z,100.00
2023-01-02T07:52:03.500Z,100.00
2023-01-02T07:54:29.978Z,100.00
2023-01-02T07:56:56.462Z,100.00
2023-01-02T07:59:22.950Z,100.00
2023-01-02T08:01:49.854Z,100.00
2023-01-02T08:04:19.230Z,100.00
2023-01-02T08:06:45.870Z,100.00
2023-01-02T08:09:12.491Z,100.00
2023-01-02T08:11:39.002Z,100.00
2023-01-02T08:14:05.611Z,100.00
2023-01-02T08:16:32.208Z,100.00
2023-01-02T08:18:58.689Z,100.00
2023-01-02T08:21:25.990Z,100.00
2023-01-02T08:23:52.710Z,100.00
2023-01-02T08:26:20.579Z,100.00
2023-01-02T08:28:47.169Z,100.00
2023-01-02T08:31:15.380Z,100.00
2023-01-02T08:33:42.261Z,100.00
2023-01-02T08:36:09.520Z,100.00
2023-01-02T08:38:36.055Z,100.00
2023-01-02T08:41:03.031Z,100.00
2023-01-02T08:43:29.569Z,100.00
2023-01-02T08:45:56.177Z,100.00
2023-01-02T08:48:22.749Z,100.00
2023-01-02T08:50:50.023Z,100.00
2023-01-02T08:53:16.639Z,100.00
2023-01-02T08:55:43.131Z,100.00
2023-01-02T08:58:09.637Z,100.00
2023-01-02T09:00:36.100Z,100.00
2023-01-02T09:03:02.854Z,100.00
2023-01-02T09:05:31.056Z,100.00
2023-01-02T09:07:58.187Z,100.00
2023-01-02T09:10:24.880Z,100.00
2023-01-02T09:12:51.437Z,100.00
2023-01-02T09:15:17.979Z,100.00
2023-01-02T09:17:44.530Z,100.00
2023-01-02T09:20:11.115Z,100.00
2023-01-02T09:22:37.784Z,100.00
2023-01-02T09:25:04.577Z,100.00
2023-01-02T09:27:31.145Z,99.99
2023-01-02T09:29:57.594Z,100.00
2023-01-02T09:32:24.248Z,100.00
2023-01-02T09:34:50.917Z,100.00
2023-01-02T09:37:17.953Z,100.00
2023-01-02T09:39:44.655Z,100.00
2023-01-02T09:42:14.724Z,100.00
2023-01-02T09:44:41.323Z,100.00
2023-01-02T09:47:13.564Z,100.00
2023-01-02T09:49:43.563Z,99.86
2023-01-02T09:52:17.995Z,99.61
2023-01-02T09:54:44.728Z,99.57
2023-01-02T09:57:29.378Z,99.22
2023-01-02T10:00:03.995Z,98.82
2023-01-02T10:02:36.800Z,98.51
2023-01-02T10:05:15.938Z,98.62
2023-01-02T10:07:42.431Z,98.33
2023-01-02T10:10:20.445Z,98.18
2023-01-02T10:13:11.125Z,97.96
2023-01-02T10:15:42.482Z,97.83
2023-01-02T10:18:17.852Z,97.83
2023-01-02T10:20:46.606Z,97.55
2023-01-02T10:23:18.709Z,97.59
2023-01-02T10:25:52.883Z,97.34
2023-01-02T10:28:28.232Z,97.30
2023-01-02T10:31:01.311Z,96.97
2023-01-02T10:33:32.615Z,96.71
2023-01-02T10:36:02.119Z,96.81
2023-01-02T10:38:36.382Z,96.61
2023-01-02T10:41:04.823Z,96.59
2023-01-02T10:43:35.491Z,96.37
2023-01-02T10:46:03.655Z,96.02
2023-01-02T10:48:32.036Z,95.73
2023-01-02T10:51:02.280Z,95.75
2023-01-02T10:53:28.705Z,95.52
2023-01-02T10:55:55.422Z,95.35
2023-01-02T10:58:26.727Z,95.50
2023-01-02T11:01:14.670Z,95.44
2023-01-02T11:03:41.361Z,95.22
2023-01-02T11:06:26.862Z,95.07
2023-01-02T11:08:58.783Z,94.85
2023-01-02T11:11:26.297Z,94.57
2023-01-02T11:13:55.831Z,94.57
2023-01-02T11:16:24.347Z,94.56
2023-01-02T11:18:59.564Z,94.42
2023-01-02T11:21:29.422Z,94.47
2023-01-02T11:24:03.278Z,94.30
2023-01-02T11:26:31.046Z,94.03
2023-01-02T11:29:03.073Z,94.37
2023-01-02T11:31:30.913Z,94.09
2023-01-02T11:34:08.618Z,94.38
2023-01-02T11:36:35.378Z,94.42
2023-01-02T11:39:19.474Z,94.24
2023-01-02T11:42:07.775Z,94.50
2023-01-02T11:44:36.750Z,94.77
2023-01-02T11:47:04.678Z,94.31
2023-01-02T11:49:43.890Z,93.85
2023-01-02T11:52:13.876Z,93.35
2023-01-02T11:54:47.706Z,93.13
2023-01-02T11:57:29.715Z,92.33
2023-01-02T11:59:59.151Z,92.63
2023-01-02T12:02:36.755Z,92.50
2023-01-02T12:05:09.246Z,92.79
2023-01-02T12:07:47.486Z,92.92
2023-01-02T12:10:17.636Z,93.30
2023-01-02T12:12:45.935Z,93.79
2023-01-02T12:15:31.221Z,94.25
2023-01-02T12:18:16.765Z,94.34
2023-01-02T12:20:43.940Z,94.22
2023-01-02T12:23:13.484Z,94.17
2023-01-02T12:25:53.712Z,94.27
2023-01-02T12:28:46.025Z,94.06
2023-01-02T12:31:23.233Z,94.21
2023-01-02T12:33:53.902Z,94.27
2023-01-02T12:36:20.446Z,94.25
2023-01-02T12:38:49.792Z,94.11
2023-01-02T12:41:19.290Z,94.10
2023-01-02T12:44:02.708Z,93.78
2023-01-02T12:46:41.396Z,93.69
2023-01-02T12:49:07.945Z,93.78
2023-01-02T12:51:53.093Z,93.29
2023-01-02T12:54:31.699Z,92.90
2023-01-02T12:57:05.699Z,92.84
2023-01-02T12:59:35.287Z,92.75
2023-01-02T13:02:20.894Z,92.79
2023-01-02T13:04:56.547Z,92.67
2023-01-02T13:07:37.139Z,92.95
2023-01-02T13:10:04.629Z,93.12
2023-01-02T13:12:38.821Z,92.87
2023-01-02T13:15:25.702Z,92.82
2023-01-02T13:18:01.395Z,92.77
2023-01-02T13:20:37.017Z,92.98
2023-01-02T13:23:22.135Z,92.74
2023-01-02T13:25:51.700Z,92.80
2023-01-02T13:28:18.798Z,92.95
2023-01-02T13:30:57.572Z,93.21
2023-01-02T13:33:31.918Z,93.27
2023-01-02T13:36:03.155Z,93.23
2023-01-02T13:38:31.097Z,93.37
2023-01-02T13:40:59.935Z,93.49
2023-01-02T13:43:34.471Z,93.23
2023-01-02T13:46:15.610Z,93.43
2023-01-02T13:48:52.682Z,93.34
2023-01-02T13:51:27.561Z,93.41
2023-01-02T13:53:54.317Z,93.43
2023-01-02T13:56:22.239Z,93.63
2023-01-02T13:58:57.775Z,93.73
2023-01-02T14:01:24.814Z,94.00
2023-01-02T14:04:09.982Z,94.07
2023-01-02T14:06:37.958Z,94.23
2023-01-02T14:09:04.576Z,94.13
2023-01-02T14:11:56.743Z,94.43
2023-01-02T14:14:37.692Z,94.48
2023-01-02T14:17:26.232Z,94.55
2023-01-02T14:20:11.565Z,94.50
2023-01-02T14:22:45.759Z,94.59
2023-01-02T14:25:12.340Z,94.96
2023-01-02T14:27:39.039Z,95.25
2023-01-02T14:30:05.837Z,95.18
2023-01-02T14:32:46.967Z,95.30
2023-01-02T14:35:13.535Z,95.71
2023-01-02T14:37:39.990Z,95.79
2023-01-02T14:40:10.339Z,96.17
2023-01-02T14:42:56.585Z,96.23
2023-01-02T14:45:24.831Z,96.53
2023-01-02T14:48:25.326Z,96.64
2023-01-02T14:50:55.491Z,97.04
2023-01-02T14:53:29.276Z,97.05
2023-01-02T14:58:51.626Z,96.83
2023-01-02T15:01:43.399Z,97.28
2023-01-02T15:04:13.892Z,97.41
2023-01-02T15:06:42.098Z,97.45
2023-01-02T15:09:14.738Z,97.58
2023-01-02T15:12:10.610Z,97.53
2023-01-02T15:14:38.263Z,97.65
2023-01-02T15:17:07.146Z,97.70
2023-01-02T15:19:33.758Z,97.66
2023-01-02T15:22:08.418Z,97.68
2023-01-02T15:24:34.948Z,97.74
2023-01-02T15:27:23.267Z,97.87
2023-01-02T15:29:55.767Z,97.99
2023-01-02T15:32:30.443Z,98.03
2023-01-02T15:35:17.210Z,97.98
2023-01-02T15:37:44.873Z,98.23
2023-01-02T15:40:16.153Z,98.59
2023-01-02T15:43:02.286Z,98.47
2023-01-02T15:45:30.606Z,98.44
2023-01-02T15:47:57.624Z,98.28
2023-01-02T15:50:25.175Z,98.52
2023-01-02T15:52:59.414Z,98.44
2023-01-02T15:55:28.370Z,98.57
2023-01-02T15:57:54.900Z,98.54
2023-01-02T16:00:30.904Z,98.81
2023-01-02T16:03:01.827Z,98.87
2023-01-02T16:05:29.053Z,98.90
2023-01-02T16:07:57.018Z,98.83
2023-01-02T16:10:24.691Z,98.80
2023-01-02T16:13:01.377Z,99.02
2023-01-02T16:15:29.835Z,99.20
2023-01-02T16:17:57.122Z,99.19
2023-01-02T16:20:25.315Z,99.49
2023-01-02T16:22:59.864Z,99.33
2023-01-02T16:25:30.134Z,99.58
2023-01-02T16:28:01.675Z,99.59
2023-01-02T16:30:38.290Z,99.55
2023-01-02T16:33:21.015Z,99.72
2023-01-02T16:35:58.205Z,99.80
2023-01-02T16:38:27.315Z,99.70
2023-01-02T16:41:04.718Z,99.80
2023-01-02T16:43:34.413Z,99.58
2023-01-02T16:46:02.018Z,99.62
2023-01-02T16:48:30.054Z,99.77
2023-01-02T16:50:57.890Z,99.68
2023-01-02T16:53:28.063Z,99.72
2023-01-02T16:55:54.737Z,99.82
2023-01-02T16:58:21.302Z,99.67
2023-01-02T17:00:48.184Z,99.88
2023-01-02T17:03:16.591Z,99.71
2023-01-02T17:05:45.637Z,99.75
2023-01-02T17:08:12.175Z,99.92
2023-01-02T17:10:38.832Z,99.94
2023-01-02T17:13:05.636Z,99.86
2023-01-02T17:15:36.052Z,99.76
2023-01-02T17:18:02.562Z,99.80
2023-01-02T17:20:29.472Z,100.00
2023-01-02T17:22:56.041Z,99.92
2023-01-02T17:25:23.437Z,99.98
2023-01-02T17:27:50.117Z,99.95
2023-01-02T17:30:16.904Z,99.95
2023-01-02T17:32:43.915Z,100.00
2023-01-02T17:35:11.209Z,100.00
2023-01-02T17:37:38.362Z,100.00
2023-01-02T17:40:05.824Z,100.00
2023-01-02T17:42:32.652Z,100.00
2023-01-02T17:44:59.329Z,100.00
2023-01-02T17:50:12.464Z,100.00
2023-01-02T17:52:39.031Z,100.00
2023-01-02T17:55:06.936Z,100.00
2023-01-02T17:57:37.058Z,100.00
2023-01-02T18:00:08.014Z,100.00
2023-01-02T18:02:40.770Z,100.00
2023-01-02T18:05:07.749Z,100.00
2023-01-02T18:07:34.272Z,100.00
2023-01-02T18:10:08.854Z,100.00
2023-01-02T18:12:38.090Z,100.00
2023-01-02T18:15:12.062Z,100.00
2023-01-02T18:17:38.551Z,100.00
2023-01-02T18:20:12.435Z,100.00
2023-01-02T18:22:44.071Z,100.00
2023-01-02T18:25:14.860Z,100.00
2023-01-02T18:27:41.662Z,100.00
2023-01-02T18:30:13.529Z,100.00
2023-01-02T18:32:41.607Z,100.00
2023-01-02T18:35:55.021Z,100.00
2023-01-02T18:38:13.271Z,100.00
2023-01-02T18:40:39.725Z,100.00
2023-01-02T18:43:26.484Z,100.00
2023-01-02T18:46:14.124Z,100.00
2023-01-02T18:48:41.042Z,100.00
2023-01-02T18:51:25.814Z,100.00
2023-01-02T18:54:07.257Z,100.00
2023-01-02T18:56:42.623Z,100.00
2023-01-02T18:59:38.440Z,100.00
2023-01-02T19:02:14.807Z,100.00
2023-01-02T19:04:54.493Z,100.00
2023-01-02T19:07:34.753Z,100.00
2023-01-02T19:10:01.345Z,100.00
2023-01-02T19:12:46.350Z,100.00
2023-01-02T19:15:44.835Z,100.00
2023-01-02T19:18:25.432Z,100.00
2023-01-02T19:21:18.473Z,100.00
2023-01-02T19:24:03.707Z,100.00
2023-01-02T19:26:36.556Z,100.00
2023-01-02T19:29:26.518Z,100.00
2023-01-02T19:32:20.742Z,100.00
2023-01-02T19:34:47.298Z,100.00
2023-01-02T19:37:19.860Z,100.00
2023-01-02T19:39:53.985Z,100.00
2023-01-02T19:42:21.868Z,100.00
2023-01-02T19:44:49.633Z,100.00
2023-01-02T19:47:22.679Z,100.00
2023-01-02T19:49:49.772Z,100.00
2023-01-02T19:52:16.237Z,100.00
2023-01-02T19:54:42.976Z,100.00
2023-01-02T19:57:17.266Z,100.00
2023-01-02T19:59:47.632Z,100.00
2023-01-02T20:02:15.101Z,100.00
2023-01-02T20:04:52.274Z,100.00
2023-01-02T20:07:21.826Z,100.00
2023-01-02T20:10:03.978Z,100.00
2023-01-02T20:12:55.417Z,100.00
2023-01-02T20:15:24.881Z,100.00
2023-01-02T20:17:53.068Z,100.00
2023-01-02T20:20:22.041Z,100.00
2023-01-02T20:22:51.577Z,100.00
2023-01-02T20:25:21.169Z,100.00
2023-01-02T20:27:53.247Z,100.00
2023-01-02T20:30:24.606Z,100.00
2023-01-02T20:32:56.485Z,100.00
2023-01-02T20:35:32.470Z,100.00
2023-01-02T20:38:01.974Z,100.00
2023-01-02T20:40:28.493Z,100.00
2023-01-02T20:42:58.191Z,100.00
2023-01-02T20:45:26.644Z,100.00
2023-01-02T20:47:54.358Z,100.00
2023-01-02T20:50:20.857Z,100.00
2023-01-02T20:52:49.090Z,100.00
2023-01-02T20:55:18.758Z,100.00
2023-01-02T20:57:47.198Z,100.00
2023-01-02T21:00:16.837Z,100.00
2023-01-02T21:02:43.467Z,100.00
2023-01-02T21:05:10.569Z,100.00
2023-01-02T21:07:37.219Z,100.00
2023-01-02T21:10:03.765Z,100.00
2023-01-02T21:12:48.922Z,100.00
2023-01-02T21:15:33.782Z,100.00
2023-01-02T21:18:00.876Z,100.00
2023-01-02T21:20:27.875Z,100.00
2023-01-02T21:22:54.423Z,100.00
2023-01-02T21:25:20.988Z,100.00
2023-01-02T21:27:47.438Z,100.00
2023-01-02T21:30:13.934Z,100.00
2023-01-02T21:32:40.449Z,100.00
2023-01-02T21:35:06.990Z,100.00
2023-01-02T21:37:33.492Z,100.00
2023-01-02T21:40:00.057Z,100.00
2023-01-02T21:42:26.657Z,100.00
2023-01-02T21:44:53.160Z,100.00
2023-01-02T21:47:19.686Z,100.00
2023-01-02T21:49:46.219Z,100.00
2023-01-02T21:52:12.734Z,100.00
2023-01-02T21:54:39.260Z,100.00
2023-01-02T21:57:05.787Z,100.00
2023-01-02T21:59:32.796Z,100.00
2023-01-02T22:02:08.641Z,100.00
2023-01-02T22:04:35.760Z,100.00
2023-01-02T22:07:30.577Z,100.00
2023-01-02T22:09:51.067Z,100.00
2023-01-02T22:12:17.527Z,100.00
2023-01-02T22:14:47.044Z,100.00
2023-01-02T22:17:13.984Z,100.00
2023-01-02T22:19:40.673Z,100.00
2023-01-02T22:22:09.543Z,100.00
2023-01-02T22:24:42.289Z,100.00
2023-01-02T22:27:13.005Z,100.00
2023-01-02T22:30:18.596Z,100.00
2023-01-02T22:32:26.546Z,100.00
2023-01-02T22:34:53.311Z,100.00
2023-01-02T22:37:22.989Z,100.00
2023-01-02T22:39:49.714Z,100.00
2023-01-02T22:43:00.151Z,100.00
2023-01-02T22:45:29.965Z,100.00
2023-01-02T22:47:57.882Z,100.00
2023-01-02T22:50:26.319Z,100.00
2023-01-02T22:52:53.281Z,100.00
2023-01-02T22:55:20.944Z,100.00
2023-01-02T22:57:51.465Z,100.00
2023-01-02T23:00:19.618Z,100.00
2023-01-02T23:02:46.525Z,100.00
2023-01-02T23:05:20.647Z,100.00
2023-01-02T23:07:49.618Z,100.00
2023-01-02T23:10:16.507Z,100.00
2023-01-02T23:12:43.104Z,100.00
2023-01-02T23:15:11.448Z,100.00
2023-01-02T23:17:56.652Z,100.00
2023-01-02T23:20:24.440Z,100.00
2023-01-02T23:22:54.045Z,100.00
2023-01-02T23:25:20.898Z,100.00
2023-01-02T23:27:47.382Z,100.00
2023-01-02T23:30:13.963Z,100.00
2023-01-02T23:32:40.450Z,100.00
2023-01-02T23:35:07.201Z,100.00
2023-01-02T23:37:36.063Z,100.00
2023-01-02T23:40:02.635Z,100.00
2023-01-02T23:42:29.179Z,100.00
2023-01-02T23:44:55.624Z,100.00
2023-01-02T23:47:22.196Z,100.00
2023-01-02T23:49:48.857Z,100.00
2023-01-02T23:52:18.162Z,100.00
2023-01-02T23:54:47.767Z,100.00
2023-01-02T23:57:14.198Z,100.00
2023-01-02T23:59:40.688Z,100.00
